Time;durP1;ratioP1;P1;durP2;ratioP2;P2;SDS_P1;SDS_P2;PMS_P1;PMS_P2;Temp;Humidity;BMP_temperature;BMP_pressure;BME280_temperature;BME280_humidity;BME280_pressure;Samples;Min_cycle;Max_cycle;Signal;HPM_P1;HPM_P2
2023/03/09 06:52:48;;;;;;;;;;;;;;;8.13;90.48;96132.34;6210161;22;20397;-59
2023/03/09 06:55:13;;;;;;;;;;;;;;;8.18;90.35;96129.31;6213282;23;19916;-57
2023/03/09 06:57:38;;;;;;;;;;;;;;;8.16;90.14;96146.91;6187402;23;20250;-60
2023/03/09 07:00:04;;;;;;;;;;;;;;;8.20;89.54;96143.06;6216027;23;19908;-58
2023/03/09 07:02:29;;;;;;;;;;;;;;;8.28;88.43;96162.25;6215895;23;19934;-60
2023/03/09 07:04:55;;;;;;;;;;;;;;;8.26;89.06;96159.00;6214530;23;19907;-60
2023/03/09 07:07:20;;;;;;;;;;;;;;;8.31;88.55;96158.56;6216062;23;19962;-60
2023/03/09 07:09:45;;;;;;;;;;;;;;;8.37;88.11;96170.25;6215459;23;19930;-60
2023/03/09 07:12:10;;;;;;;;;;;;;;;8.37;88.04;96188.53;6215567;23;19957;-59
2023/03/09 07:14:36;;;;;;;;;;;;;;;8.36;88.67;96195.50;6215435;23;19962;-60
2023/03/09 07:17:01;;;;;;;;;;;;;;;8.35;88.48;96209.53;6215103;23;19911;-60
2023/03/09 07:19:26;;;;;;;;;;;;;;;8.36;88.31;96210.38;6216179;23;19908;-58
2023/03/09 07:21:54;;;;;;;;;;;;;;;8.45;87.81;96210.38;6215929;23;19908;-60
2023/03/09 07:24:19;;;;;;;;;;;;;;;8.50;87.27;96217.81;6215166;23;19927;-60
2023/03/09 07:26:46;;;;;;;;;;;;;;;8.53;86.55;96217.50;6214222;23;19991;-60
2023/03/09 07:29:12;;;;;;;;;;;;;;;8.65;86.63;96224.25;6189643;23;19931;-60
2023/03/09 07:31:37;;;;;;;;;;;;;;;8.72;85.82;96238.38;6215850;23;20327;-60
2023/03/09 07:34:02;;;;;;;;;;;;;;;8.79;84.57;96244.69;6215591;23;19908;-61
2023/03/09 07:36:28;;;;;;;;;;;;;;;8.80;84.51;96241.09;6215322;23;19915;-61
2023/03/09 07:38:53;;;;;;;;;;;;;;;8.84;82.88;96264.34;6215047;23;19912;-59
2023/03/09 07:41:18;;;;;;;;;;;;;;;8.87;82.83;96258.84;6188828;23;19908;-60
2023/03/09 07:43:43;;;;;;;;;;;;;;;8.84;83.10;96261.75;6215832;23;19923;-60
2023/03/09 07:46:12;;;;;;;;;;;;;;;8.87;83.26;96262.28;6215272;23;20358;-58
2023/03/09 07:48:37;;;;;;;;;;;;;;;8.91;81.74;96275.88;6215038;23;19978;-58
2023/03/09 07:51:03;;;;;;;;;;;;;;;9.02;81.89;96265.28;6188979;23;19942;-58
2023/03/09 07:53:31;;;;;;;;;;;;;;;9.12;81.45;96266.06;6214747;23;19915;-61
2023/03/09 07:55:57;;;;;;;;;;;;;;;9.21;80.81;96273.03;6189082;23;19977;-59
2023/03/09 07:58:22;;;;;;;;;;;;;;;9.26;79.47;96280.47;6188072;23;20335;-59
2023/03/09 08:00:47;;;;;;;;;;;;;;;9.28;80.00;96284.56;6214877;23;19915;-58
2023/03/09 08:03:12;;;;;;;;;;;;;;;9.32;79.26;96294.75;6214228;23;19982;-61
2023/03/09 08:05:39;;;;;;;;;;;;;;;9.40;79.22;96298.31;6212060;23;19955;-61
2023/03/09 08:08:04;;;;;;;;;;;;;;;9.49;78.95;96305.28;6213996;23;19908;-62
2023/03/09 08:10:30;;;;;;;;;;;;;;;9.62;77.56;96304.13;6214600;23;19911;-62
2023/03/09 08:12:55;;;;;;;;;;;;;;;9.56;78.75;96305.53;6215013;23;19915;-62
2023/03/09 08:15:22;;;;;;;;;;;;;;;9.50;78.82;96312.19;6215553;23;19907;-61
2023/03/09 08:17:47;;;;;;;;;;;;;;;9.41;79.82;96328.75;6187946;23;19946;-61
2023/03/09 08:20:12;;;;;;;;;;;;;;;9.30;81.25;96325.50;6214645;23;19912;-61
2023/03/09 08:22:37;;;;;;;;;;;;;;;9.18;81.72;96336.09;6215067;23;20302;-61
2023/03/09 08:25:03;;;;;;;;;;;;;;;9.03;82.45;96338.34;6215479;23;19970;-61
2023/03/09 08:27:28;;;;;;;;;;;;;;;9.01;82.98;96331.59;6188179;23;19907;-62
2023/03/09 08:29:54;;;;;;;;;;;;;;;8.95;83.86;96342.66;6214846;23;19918;-62
2023/03/09 08:32:19;;;;;;;;;;;;;;;9.03;83.97;96350.59;6214857;23;19951;-62
2023/03/09 08:34:45;;;;;;;;;;;;;;;9.05;84.25;96353.91;6214879;23;19915;-62
2023/03/09 08:37:10;;;;;;;;;;;;;;;9.12;83.29;96352.38;6214790;23;19915;-61
2023/03/09 08:39:35;;;;;;;;;;;;;;;9.12;83.22;96355.00;6214960;23;19912;-62
2023/03/09 08:42:00;;;;;;;;;;;;;;;9.14;83.12;96350.44;6214590;23;20006;-61
2023/03/09 08:44:25;;;;;;;;;;;;;;;9.16;83.14;96353.75;6214974;23;19958;-62
2023/03/09 08:46:51;;;;;;;;;;;;;;;9.30;82.69;96355.09;6215285;23;19909;-61
2023/03/09 08:49:16;;;;;;;;;;;;;;;9.45;82.22;96363.28;6214657;23;19908;-61
2023/03/09 08:51:41;;;;;;;;;;;;;;;9.51;81.73;96360.09;6215063;23;19999;-62
2023/03/09 08:54:06;;;;;;;;;;;;;;;9.63;81.29;96366.78;6213535;23;19947;-62
2023/03/09 08:56:31;;;;;;;;;;;;;;;9.79;80.38;96373.22;6214574;23;19907;-62
2023/03/09 08:58:57;;;;;;;;;;;;;;;9.92;78.64;96371.09;6212645;23;19915;-62
2023/03/09 09:01:22;;;;;;;;;;;;;;;9.92;80.18;96371.09;6214963;23;19908;-62
2023/03/09 09:03:48;;;;;;;;;;;;;;;9.98;78.90;96381.00;6213789;23;19908;-61
2023/03/09 09:06:13;;;;;;;;;;;;;;;10.00;78.46;96381.66;6214488;23;19987;-61
2023/03/09 09:08:39;;;;;;;;;;;;;;;10.05;78.63;96397.78;6188134;23;19908;-61
2023/03/09 09:11:05;;;;;;;;;;;;;;;10.03;77.50;96386.59;6213566;23;20229;-61
2023/03/09 09:13:30;;;;;;;;;;;;;;;10.13;76.92;96397.03;6187917;23;19916;-61
2023/03/09 09:15:56;;;;;;;;;;;;;;;10.23;77.68;96398.63;6214883;23;19962;-61
2023/03/09 09:18:21;;;;;;;;;;;;;;;10.30;76.09;96400.69;6214871;23;20251;-61
2023/03/09 09:20:47;;;;;;;;;;;;;;;10.28;76.33;96402.63;6213408;23;20328;-61
2023/03/09 09:23:12;;;;;;;;;;;;;;;10.35;76.07;96401.06;6213550;23;19943;-61
2023/03/09 09:25:37;;;;;;;;;;;;;;;10.32;75.77;96427.56;6214750;23;20035;-62
2023/03/09 09:28:02;;;;;;;;;;;;;;;10.28;76.03;96419.16;6214878;23;19939;-61
2023/03/09 09:30:29;;;;;;;;;;;;;;;10.23;75.33;96416.97;6212267;23;19958;-61
2023/03/09 09:32:55;;;;;;;;;;;;;;;10.35;74.70;96424.66;6213495;23;19916;-61
2023/03/09 09:35:20;;;;;;;;;;;;;;;10.49;75.09;96416.28;6214656;23;20243;-61
2023/03/09 09:37:45;;;;;;;;;;;;;;;10.56;74.96;96425.19;6214732;23;20290;-61
2023/03/09 09:40:11;;;;;;;;;;;;;;;10.67;74.26;96434.66;6214436;23;20232;-57
2023/03/09 09:42:38;;;;;;;;;;;;;;;10.82;74.75;96429.72;6186774;23;19908;-60
2023/03/09 09:45:04;;;;;;;;;;;;;;;10.88;74.74;96429.13;6188040;23;19915;-61
2023/03/09 09:47:29;;;;;;;;;;;;;;;10.94;73.22;96433.75;6187944;23;19932;-62
2023/03/09 09:49:55;;;;;;;;;;;;;;;10.85;73.96;96424.19;6187884;23;19908;-61
2023/03/09 09:52:33;;;;;;;;;;;;;;;10.77;73.58;96439.81;6187818;23;19947;-62
2023/03/09 09:54:58;;;;;;;;;;;;;;;10.75;73.72;96444.41;6187965;23;19991;-61
2023/03/09 09:57:43;;;;;;;;;;;;;;;10.83;73.04;96450.53;6214492;23;19931;-62
2023/03/09 10:00:09;;;;;;;;;;;;;;;10.95;73.13;96445.09;6213763;23;19912;-62
2023/03/09 10:02:53;;;;;;;;;;;;;;;11.05;72.78;96457.16;6214142;23;19915;-61
2023/03/09 10:05:30;;;;;;;;;;;;;;;10.99;71.91;96449.06;6214444;23;20216;-61
2023/03/09 10:07:56;;;;;;;;;;;;;;;11.01;73.32;96455.81;6187912;23;19946;-61
